createdAt,value
2023-05-04T00:02:19.447Z,2.40
2023-05-04T00:04:46.066Z,2.30
2023-05-04T00:07:12.265Z,2.20
2023-05-04T00:09:38.492Z,2.20
2023-05-04T00:12:06.007Z,2.10
2023-05-04T00:14:32.303Z,2.10
2023-05-04T00:16:58.463Z,2.10
2023-05-04T00:19:24.889Z,2.10
2023-05-04T00:21:51.393Z,2.10
2023-05-04T00:24:25.394Z,2.10
2023-05-04T00:26:51.644Z,2.10
2023-05-04T00:29:17.811Z,1.90
2023-05-04T00:31:44.045Z,1.90
2023-05-04T00:34:10.388Z,1.90
2023-05-04T00:36:37.352Z,1.90
2023-05-04T00:39:04.003Z,1.90
2023-05-04T00:41:30.142Z,1.80
2023-05-04T00:43:56.259Z,-0.40
2023-05-04T00:46:22.481Z,1.80
2023-05-04T00:48:49.311Z,0.00
2023-05-04T00:51:16.364Z,1.70
2023-05-04T00:53:42.512Z,1.80
2023-05-04T00:56:08.660Z,1.70
2023-05-04T00:58:34.820Z,1.80
2023-05-04T01:01:01.632Z,1.70
2023-05-04T01:03:28.096Z,1.80
2023-05-04T01:06:30.374Z,1.80
2023-05-04T01:10:37.512Z,1.80
2023-05-04T01:13:05.626Z,1.70
2023-05-04T01:15:31.852Z,1.60
2023-05-04T01:17:58.029Z,1.60
2023-05-04T01:20:24.242Z,1.50
2023-05-04T01:22:50.459Z,1.50
2023-05-04T01:25:16.953Z,1.50
2023-05-04T01:27:47.009Z,1.40
2023-05-04T01:30:25.611Z,1.40
2023-05-04T01:32:51.868Z,1.30
2023-05-04T01:35:18.057Z,1.90
2023-05-04T01:37:44.225Z,1.50
2023-05-04T01:40:11.206Z,1.20
2023-05-04T01:42:37.349Z,3.20
2023-05-04T01:45:03.874Z,1.10
2023-05-04T01:47:30.184Z,1.20
2023-05-04T01:49:56.367Z,1.20
2023-05-04T01:52:22.778Z,1.60
2023-05-04T01:54:48.965Z,1.20
2023-05-04T01:57:15.411Z,1.20
2023-05-04T01:59:41.583Z,1.20
2023-05-04T02:02:07.762Z,1.10
2023-05-04T02:04:34.352Z,1.10
2023-05-04T02:07:00.672Z,1.10
2023-05-04T02:09:26.992Z,1.30
2023-05-04T02:11:53.117Z,1.10
2023-05-04T02:14:19.261Z,1.00
2023-05-04T02:16:45.808Z,1.10
2023-05-04T02:19:11.986Z,1.00
2023-05-04T02:21:40.353Z,0.90
2023-05-04T02:24:07.118Z,0.90
2023-05-04T02:26:33.839Z,0.90
2023-05-04T02:29:00.187Z,0.80
2023-05-04T02:31:26.556Z,0.80
2023-05-04T02:33:53.215Z,0.80
2023-05-04T02:36:19.331Z,0.80
2023-05-04T02:38:45.813Z,0.80
2023-05-04T02:41:11.941Z,0.90
2023-05-04T02:43:38.116Z,0.90
2023-05-04T02:46:04.393Z,0.80
2023-05-04T02:48:30.833Z,0.80
2023-05-04T02:50:57.386Z,1.30
2023-05-04T02:53:23.698Z,0.70
2023-05-04T02:55:49.827Z,0.70
2023-05-04T02:58:16.004Z,0.70
2023-05-04T03:00:42.247Z,0.70
2023-05-04T03:03:08.509Z,1.00
2023-05-04T03:05:34.642Z,0.90
2023-05-04T03:08:00.813Z,0.70
2023-05-04T03:10:26.939Z,0.60
2023-05-04T03:12:53.131Z,0.60
2023-05-04T03:15:19.283Z,0.60
2023-05-04T03:17:45.510Z,0.60
2023-05-04T03:20:12.588Z,0.60
2023-05-04T03:22:38.729Z,0.60
2023-05-04T03:25:06.397Z,0.60
2023-05-04T03:27:32.552Z,0.60
2023-05-04T03:29:58.771Z,0.60
2023-05-04T03:32:25.748Z,0.60
2023-05-04T03:34:51.948Z,0.70
2023-05-04T03:37:18.121Z,0.80
2023-05-04T03:39:44.250Z,0.70
2023-05-04T03:42:10.756Z,1.10
2023-05-04T03:44:36.980Z,2.30
2023-05-04T03:47:03.259Z,3.20
2023-05-04T03:49:29.792Z,4.00
2023-05-04T03:51:55.899Z,4.70
2023-05-04T03:54:22.066Z,5.20
2023-05-04T03:56:48.195Z,5.60
2023-05-04T03:59:15.420Z,6.10
2023-05-04T04:01:41.538Z,6.80
2023-05-04T04:04:07.956Z,7.50
2023-05-04T04:06:34.259Z,7.10
2023-05-04T04:09:00.615Z,7.90
2023-05-04T04:11:26.830Z,8.70
2023-05-04T04:13:53.206Z,9.50
2023-05-04T04:16:22.120Z,10.20
2023-05-04T04:18:48.529Z,10.80
2023-05-04T04:21:14.724Z,11.30
2023-05-04T04:23:40.991Z,12.00
2023-05-04T04:26:07.158Z,12.70
2023-05-04T04:28:33.659Z,12.80
2023-05-04T04:31:00.174Z,13.20
2023-05-04T04:33:26.599Z,13.10
2023-05-04T04:35:52.776Z,12.80
2023-05-04T04:38:19.157Z,12.40
2023-05-04T04:40:45.319Z,11.90
2023-05-04T04:43:12.351Z,11.40
2023-05-04T04:45:38.634Z,10.90
2023-05-04T04:48:05.252Z,10.20
2023-05-04T04:50:31.566Z,9.70
2023-05-04T04:52:57.728Z,9.30
2023-05-04T04:55:25.261Z,9.20
2023-05-04T04:57:52.558Z,9.30
2023-05-04T05:00:19.261Z,9.40
2023-05-04T05:02:45.585Z,9.80
2023-05-04T05:05:12.420Z,9.90
2023-05-04T05:07:38.781Z,9.70
2023-05-04T05:10:06.016Z,9.70
2023-05-04T05:12:32.326Z,9.60
2023-05-04T05:14:59.186Z,9.40
2023-05-04T05:17:25.880Z,9.30
2023-05-04T05:19:52.121Z,9.60
2023-05-04T05:22:18.297Z,9.70
2023-05-04T05:24:44.420Z,9.80
2023-05-04T05:27:10.624Z,9.80
2023-05-04T05:29:36.758Z,10.20
2023-05-04T05:32:03.713Z,10.60
2023-05-04T05:34:29.928Z,11.10
2023-05-04T05:36:56.184Z,11.80
2023-05-04T05:39:22.924Z,11.90
2023-05-04T05:41:49.257Z,12.50
2023-05-04T05:44:15.605Z,13.30
2023-05-04T05:46:41.987Z,13.40
2023-05-04T05:49:08.341Z,13.00
2023-05-04T05:51:34.788Z,13.50
2023-05-04T05:54:01.322Z,14.00
2023-05-04T05:56:27.499Z,13.80
2023-05-04T05:58:53.765Z,13.40
2023-05-04T06:01:19.937Z,14.20
2023-05-04T06:03:46.251Z,14.60
2023-05-04T06:06:12.663Z,14.60
2023-05-04T06:08:38.898Z,14.50
2023-05-04T06:11:05.514Z,15.10
2023-05-04T06:13:31.665Z,16.00
2023-05-04T06:15:57.919Z,16.60
2023-05-04T06:18:24.194Z,17.00
2023-05-04T06:20:57.347Z,15.90
2023-05-04T06:23:24.874Z,17.30
2023-05-04T06:25:51.117Z,16.90
2023-05-04T06:28:17.636Z,17.50
2023-05-04T06:30:44.340Z,17.70
2023-05-04T06:33:10.754Z,17.70
2023-05-04T06:35:37.070Z,19.00
2023-05-04T06:38:03.453Z,19.70
2023-05-04T06:40:30.094Z,20.50
2023-05-04T06:42:56.715Z,21.30
2023-05-04T06:45:23.152Z,21.40
2023-05-04T06:47:49.536Z,22.30
2023-05-04T06:50:16.168Z,22.40
2023-05-04T06:52:43.482Z,22.90
2023-05-04T06:55:09.860Z,22.10
2023-05-04T06:57:36.051Z,20.10
2023-05-04T07:00:04.017Z,20.10
2023-05-04T07:02:30.643Z,21.10
2023-05-04T07:04:57.064Z,21.00
2023-05-04T07:07:23.518Z,21.00
2023-05-04T07:09:49.675Z,20.70
2023-05-04T07:12:16.106Z,21.00
2023-05-04T07:14:42.343Z,21.50
2023-05-04T07:17:11.159Z,21.40
2023-05-04T07:19:37.383Z,21.90
2023-05-04T07:22:03.730Z,22.70
2023-05-04T07:24:30.962Z,23.80
2023-05-04T07:26:57.206Z,24.90
2023-05-04T07:29:23.558Z,24.70
2023-05-04T07:31:49.779Z,25.10
2023-05-04T07:34:15.908Z,25.50
2023-05-04T07:36:43.416Z,25.70
2023-05-04T07:39:09.845Z,24.90
2023-05-04T07:41:36.370Z,23.70
2023-05-04T07:44:04.962Z,22.80
2023-05-04T07:46:31.270Z,24.60
2023-05-04T07:48:57.752Z,24.20
2023-05-04T07:51:24.094Z,23.50
2023-05-04T07:53:50.304Z,22.40
2023-05-04T07:56:16.719Z,23.70
2023-05-04T07:58:42.908Z,24.50
2023-05-04T08:01:09.207Z,24.00
2023-05-04T08:03:36.041Z,23.00
2023-05-04T08:06:02.296Z,23.40
2023-05-04T08:08:28.501Z,22.80
2023-05-04T08:10:57.698Z,22.20
2023-05-04T08:13:28.767Z,22.70
2023-05-04T08:15:56.968Z,22.50
2023-05-04T08:18:23.546Z,23.60
2023-05-04T08:20:49.905Z,24.90
2023-05-04T08:23:16.546Z,24.60
2023-05-04T08:25:42.854Z,24.50
2023-05-04T08:28:09.401Z,25.60
2023-05-04T08:30:37.100Z,25.50
2023-05-04T08:33:03.526Z,22.80
2023-05-04T08:35:29.929Z,22.80
2023-05-04T08:37:56.628Z,23.30
2023-05-04T08:40:23.462Z,22.50
2023-05-04T08:42:52.393Z,22.60
2023-05-04T08:45:18.542Z,22.00
2023-05-04T08:47:45.641Z,22.50
2023-05-04T08:50:12.190Z,21.50
2023-05-04T08:52:41.208Z,21.90
2023-05-04T08:55:09.264Z,21.80
2023-05-04T08:57:35.439Z,22.10
2023-05-04T09:00:01.928Z,22.60
2023-05-04T09:02:28.475Z,22.10
2023-05-04T09:04:55.082Z,22.60
2023-05-04T09:07:21.582Z,22.90
2023-05-04T09:09:50.282Z,23.90
2023-05-04T09:12:17.650Z,24.10
2023-05-04T09:14:43.890Z,23.30
2023-05-04T09:17:24.534Z,23.10
2023-05-04T09:20:03.978Z,23.10
2023-05-04T09:22:30.292Z,23.00
2023-05-04T09:25:08.255Z,23.80
2023-05-04T09:27:34.458Z,24.40
2023-05-04T09:30:00.692Z,24.50
2023-05-04T09:32:27.851Z,23.50
2023-05-04T09:34:54.065Z,23.60
2023-05-04T09:37:21.710Z,23.50
2023-05-04T09:39:53.029Z,23.40
2023-05-04T09:42:20.324Z,23.00
2023-05-04T09:44:57.311Z,23.70
2023-05-04T09:47:38.567Z,23.90
2023-05-04T09:50:17.616Z,24.40
2023-05-04T09:52:46.636Z,23.10
2023-05-04T09:55:14.519Z,23.50
2023-05-04T09:57:45.078Z,23.80
2023-05-04T10:00:16.468Z,23.90
2023-05-04T10:02:46.584Z,22.20
2023-05-04T10:05:16.396Z,22.00
2023-05-04T10:07:45.853Z,20.70
2023-05-04T10:10:13.129Z,20.70
2023-05-04T10:12:39.317Z,20.50
2023-05-04T10:15:10.314Z,19.80
2023-05-04T10:19:48.154Z,20.20
2023-05-04T10:24:06.865Z,20.60
2023-05-04T10:27:20.952Z,21.50
2023-05-04T10:29:50.718Z,21.70
2023-05-04T10:32:21.922Z,22.20
2023-05-04T10:34:48.288Z,22.30
2023-05-04T10:37:18.619Z,22.50
2023-05-04T10:39:52.808Z,21.70
2023-05-04T10:42:19.758Z,21.60
2023-05-04T10:44:52.043Z,20.50
2023-05-04T10:47:28.648Z,20.90
2023-05-04T10:50:09.959Z,20.60
2023-05-04T10:52:46.796Z,20.60
2023-05-04T10:55:13.383Z,20.90
2023-05-04T10:58:15.853Z,21.80
2023-05-04T11:00:46.417Z,21.10
2023-05-04T11:03:13.462Z,20.90
2023-05-04T11:05:44.986Z,20.90
2023-05-04T11:08:21.205Z,21.10
2023-05-04T11:10:48.151Z,20.40
2023-05-04T11:13:17.350Z,20.60
2023-05-04T11:15:47.687Z,20.90
2023-05-04T11:18:14.075Z,20.40
2023-05-04T11:20:41.523Z,19.70
2023-05-04T11:23:09.569Z,19.60
2023-05-04T11:25:36.788Z,20.20
2023-05-04T11:28:03.205Z,20.00
2023-05-04T11:30:33.623Z,19.90
2023-05-04T11:33:11.349Z,20.00
2023-05-04T11:35:37.928Z,21.00
2023-05-04T11:38:04.068Z,21.00
2023-05-04T11:40:30.224Z,20.40
2023-05-04T11:42:57.220Z,20.30
2023-05-04T11:45:27.064Z,20.00
2023-05-04T11:47:56.934Z,20.60
2023-05-04T11:50:23.984Z,21.30
2023-05-04T11:52:50.155Z,21.80
2023-05-04T11:55:29.005Z,21.80
2023-05-04T11:57:59.446Z,21.80
2023-05-04T12:01:25.967Z,21.20
2023-05-04T12:03:54.519Z,20.20
2023-05-04T12:06:31.989Z,20.60
2023-05-04T12:09:02.425Z,20.30
2023-05-04T12:11:28.665Z,20.00
2023-05-04T12:14:28.146Z,20.30
2023-05-04T12:16:54.468Z,20.90
2023-05-04T12:19:21.013Z,20.40
2023-05-04T12:21:52.442Z,20.70
2023-05-04T12:24:21.097Z,21.10
2023-05-04T12:26:47.460Z,20.50
2023-05-04T12:29:13.694Z,21.00
2023-05-04T12:31:39.909Z,21.20
2023-05-04T12:34:06.100Z,20.80
2023-05-04T12:36:32.235Z,21.00
2023-05-04T12:38:59.362Z,20.80
2023-05-04T12:41:25.493Z,20.20
2023-05-04T12:43:51.681Z,20.30
2023-05-04T12:46:20.701Z,20.80
2023-05-04T12:48:46.864Z,21.20
2023-05-04T12:51:13.047Z,21.30
2023-05-04T12:53:40.684Z,21.10
2023-05-04T12:56:06.928Z,20.90
2023-05-04T12:58:33.189Z,20.40
2023-05-04T13:00:59.436Z,21.10
2023-05-04T13:03:26.151Z,21.30
2023-05-04T13:05:52.441Z,21.90
2023-05-04T13:08:19.157Z,21.90
2023-05-04T13:10:45.834Z,21.90
2023-05-04T13:13:14.383Z,20.50
2023-05-04T13:15:41.018Z,20.10
2023-05-04T13:18:07.283Z,18.60
2023-05-04T13:20:33.623Z,20.60
2023-05-04T13:22:59.969Z,20.30
2023-05-04T13:25:26.314Z,20.00
2023-05-04T13:27:52.706Z,20.30
2023-05-04T13:30:21.051Z,20.00
2023-05-04T13:32:48.316Z,20.40
2023-05-04T13:35:14.598Z,19.70
2023-05-04T13:37:41.683Z,20.10
2023-05-04T13:40:09.097Z,20.10
2023-05-04T13:42:37.239Z,20.40
2023-05-04T13:45:05.674Z,20.70
2023-05-04T13:47:34.116Z,20.60
2023-05-04T13:50:01.732Z,19.80
2023-05-04T13:52:28.034Z,20.90
2023-05-04T13:54:54.238Z,20.30
2023-05-04T13:57:21.141Z,20.40
2023-05-04T14:00:02.355Z,20.80
2023-05-04T14:02:33.150Z,20.80
2023-05-04T14:04:59.415Z,20.50
2023-05-04T14:07:25.777Z,20.20
2023-05-04T14:09:51.953Z,19.80
2023-05-04T14:12:20.616Z,20.10
2023-05-04T14:14:46.857Z,20.30
2023-05-04T14:17:13.176Z,20.10
2023-05-04T14:19:39.693Z,19.90
2023-05-04T14:22:05.973Z,19.40
2023-05-04T14:24:32.346Z,19.70
2023-05-04T14:26:58.487Z,19.80
2023-05-04T14:29:26.064Z,19.60
2023-05-04T14:31:53.412Z,19.60
2023-05-04T14:34:19.990Z,19.10
2023-05-04T14:36:46.159Z,19.30
2023-05-04T14:39:12.622Z,19.90
2023-05-04T14:41:38.867Z,19.50
2023-05-04T14:44:05.355Z,19.50
2023-05-04T14:46:31.661Z,19.70
2023-05-04T14:48:58.382Z,19.10
2023-05-04T14:51:29.290Z,18.80
2023-05-04T14:53:58.997Z,18.90
2023-05-04T14:56:26.591Z,18.90
2023-05-04T14:58:52.796Z,19.10
2023-05-04T15:01:19.109Z,19.30
2023-05-04T15:03:45.751Z,19.20
2023-05-04T15:06:12.377Z,19.20
2023-05-04T15:08:38.600Z,19.20
2023-05-04T15:11:04.891Z,19.50
2023-05-04T15:13:31.298Z,19.70
2023-05-04T15:15:58.087Z,19.60
2023-05-04T15:18:25.553Z,19.40
2023-05-04T15:20:51.995Z,19.20
2023-05-04T15:23:18.293Z,18.80
2023-05-04T15:25:44.461Z,18.80
2023-05-04T15:28:11.237Z,18.80
2023-05-04T15:30:38.142Z,18.90
2023-05-04T15:33:05.053Z,18.60
2023-05-04T15:35:32.304Z,18.60
2023-05-04T15:37:58.950Z,18.50
2023-05-04T15:40:25.279Z,18.60
2023-05-04T15:42:51.539Z,18.70
2023-05-04T15:45:18.038Z,18.60
2023-05-04T15:47:45.678Z,18.60
2023-05-04T15:50:12.053Z,18.20
2023-05-04T15:52:38.454Z,18.50
2023-05-04T15:55:20.416Z,18.40
2023-05-04T15:57:50.450Z,18.30
2023-05-04T16:00:16.986Z,18.00
2023-05-04T16:02:43.301Z,17.80
2023-05-04T16:05:10.338Z,17.90
2023-05-04T16:07:36.608Z,17.80
2023-05-04T16:10:02.986Z,17.60
2023-05-04T16:12:29.270Z,17.50
2023-05-04T16:14:55.502Z,17.50
2023-05-04T16:17:22.193Z,17.40
2023-05-04T16:19:48.448Z,17.40
2023-05-04T16:22:14.851Z,17.50
2023-05-04T16:24:41.131Z,17.60
2023-05-04T16:27:07.576Z,17.60
2023-05-04T16:29:33.874Z,17.50
2023-05-04T16:32:00.298Z,17.40
2023-05-04T16:34:26.523Z,17.30
2023-05-04T16:36:52.674Z,17.10
2023-05-04T16:39:18.882Z,17.00
2023-05-04T16:41:47.504Z,16.80
2023-05-04T16:44:14.687Z,16.70
2023-05-04T16:46:42.221Z,16.70
2023-05-04T16:49:10.461Z,16.60
2023-05-04T16:51:40.800Z,16.60
2023-05-04T16:54:07.177Z,16.50
2023-05-04T16:56:33.977Z,16.50
2023-05-04T16:59:00.427Z,16.40
2023-05-04T17:01:26.607Z,16.30
2023-05-04T17:03:53.858Z,16.30
2023-05-04T17:06:20.722Z,16.20
2023-05-04T17:08:48.008Z,16.10
2023-05-04T17:11:14.278Z,16.00
2023-05-04T17:13:40.463Z,15.90
2023-05-04T17:16:07.841Z,15.80
2023-05-04T17:18:34.725Z,15.70
2023-05-04T17:21:00.962Z,15.60
2023-05-04T17:23:27.624Z,15.50
2023-05-04T17:25:53.856Z,15.40
2023-05-04T17:28:20.088Z,15.30
2023-05-04T17:30:46.294Z,15.20
2023-05-04T17:33:12.574Z,15.10
2023-05-04T17:35:39.086Z,15.00
2023-05-04T17:38:05.429Z,14.90
2023-05-04T17:40:31.561Z,14.80
2023-05-04T17:42:57.846Z,14.60
2023-05-04T17:45:24.369Z,14.60
2023-05-04T17:47:51.623Z,14.40
2023-05-04T17:50:18.788Z,14.30
2023-05-04T17:52:50.617Z,14.20
2023-05-04T17:55:16.852Z,14.00
2023-05-04T17:57:43.114Z,14.00
2023-05-04T18:00:10.361Z,13.70
2023-05-04T18:02:36.760Z,13.60
2023-05-04T18:05:03.231Z,13.50
2023-05-04T18:07:29.386Z,13.30
2023-05-04T18:09:55.659Z,13.20
2023-05-04T18:12:22.887Z,13.00
2023-05-04T18:14:51.053Z,12.90
2023-05-04T18:17:17.900Z,12.80
2023-05-04T18:19:44.206Z,12.60
2023-05-04T18:22:10.452Z,12.50
2023-05-04T18:24:36.622Z,12.40
2023-05-04T18:27:02.968Z,14.20
2023-05-04T18:29:29.296Z,12.10
2023-05-04T18:31:55.616Z,12.10
2023-05-04T18:34:22.847Z,12.00
2023-05-04T18:36:49.498Z,11.90
2023-05-04T18:39:16.034Z,11.80
2023-05-04T18:41:42.395Z,11.70
2023-05-04T18:44:09.406Z,11.60
2023-05-04T18:46:35.573Z,11.50
2023-05-04T18:49:01.848Z,11.40
2023-05-04T18:51:28.835Z,11.30
2023-05-04T18:53:55.021Z,11.30
2023-05-04T18:56:21.288Z,11.20
2023-05-04T18:58:47.833Z,11.10
2023-05-04T19:01:14.504Z,11.10
2023-05-04T19:03:40.851Z,11.00
2023-05-04T19:06:07.175Z,11.00
2023-05-04T19:08:33.435Z,10.90
2023-05-04T19:11:00.094Z,10.90
2023-05-04T19:13:27.724Z,10.80
2023-05-04T19:15:54.218Z,10.90
2023-05-04T19:18:21.721Z,10.90
2023-05-04T19:20:48.301Z,10.90
2023-05-04T19:23:14.609Z,10.90
2023-05-04T19:25:41.302Z,10.80
2023-05-04T19:28:08.406Z,10.70
2023-05-04T19:30:41.518Z,10.50
2023-05-04T19:33:08.473Z,10.40
2023-05-04T19:35:36.329Z,10.40
2023-05-04T19:38:05.546Z,10.30
2023-05-04T19:40:33.825Z,10.20
2023-05-04T19:43:00.495Z,10.30
2023-05-04T19:45:27.112Z,10.30
2023-05-04T19:47:53.625Z,10.30
2023-05-04T19:50:23.678Z,10.20
2023-05-04T19:52:51.013Z,10.20
2023-05-04T19:55:17.803Z,10.10
2023-05-04T19:57:44.975Z,10.10
2023-05-04T20:00:12.661Z,10.00
2023-05-04T20:02:41.351Z,9.90
2023-05-04T20:05:08.074Z,9.90
2023-05-04T20:07:34.568Z,9.90
2023-05-04T20:10:01.228Z,9.90
2023-05-04T20:12:27.675Z,9.80
2023-05-04T20:14:54.018Z,9.80
2023-05-04T20:17:20.451Z,9.80
2023-05-04T20:19:47.978Z,9.70
2023-05-04T20:22:14.575Z,9.70
2023-05-04T20:24:40.940Z,9.60
2023-05-04T20:27:07.923Z,9.60
2023-05-04T20:29:34.745Z,9.60
2023-05-04T20:32:02.275Z,9.50
2023-05-04T20:34:29.065Z,9.60
2023-05-04T20:36:56.191Z,9.50
2023-05-04T20:39:22.475Z,9.50
2023-05-04T20:41:50.011Z,9.40
2023-05-04T20:44:16.722Z,9.30
2023-05-04T20:46:43.713Z,7.40
2023-05-04T20:49:10.348Z,9.30
2023-05-04T20:51:37.123Z,9.20
2023-05-04T20:54:03.992Z,9.30
2023-05-04T20:56:30.254Z,9.20
2023-05-04T20:58:56.930Z,9.20
2023-05-04T21:01:25.747Z,9.10
2023-05-04T21:03:53.689Z,9.10
2023-05-04T21:06:20.537Z,9.00
2023-05-04T21:08:46.967Z,8.90
2023-05-04T21:11:13.608Z,8.80
2023-05-04T21:13:40.153Z,8.70
2023-05-04T21:16:07.780Z,8.70
2023-05-04T21:18:35.160Z,8.70
2023-05-04T21:21:05.412Z,8.80
2023-05-04T21:23:31.953Z,8.80
2023-05-04T21:26:04.483Z,8.60
2023-05-04T21:28:31.431Z,8.60
2023-05-04T21:30:58.224Z,8.50
2023-05-04T21:33:24.483Z,8.50
2023-05-04T21:35:51.029Z,8.50
2023-05-04T21:38:18.014Z,8.50
2023-05-04T21:40:46.406Z,8.40
2023-05-04T21:43:12.741Z,8.40
2023-05-04T21:45:39.317Z,8.50
2023-05-04T21:48:05.783Z,8.50
2023-05-04T21:50:32.456Z,8.50
2023-05-04T21:52:58.733Z,8.40
2023-05-04T21:55:25.337Z,8.30
2023-05-04T21:57:51.529Z,8.10
2023-05-04T22:00:18.411Z,8.00
2023-05-04T22:02:44.714Z,7.90
2023-05-04T22:05:11.671Z,7.80
2023-05-04T22:07:37.840Z,7.80
2023-05-04T22:10:04.605Z,7.80
2023-05-04T22:12:30.866Z,7.70
2023-05-04T22:14:57.058Z,7.60
2023-05-04T22:17:23.368Z,7.60
2023-05-04T22:19:49.659Z,7.40
2023-05-04T22:22:15.912Z,7.40
2023-05-04T22:24:42.079Z,7.40
2023-05-04T22:27:08.289Z,7.50
2023-05-04T22:29:35.010Z,7.50
2023-05-04T22:32:01.252Z,7.40
2023-05-04T22:34:27.549Z,7.40
2023-05-04T22:36:53.689Z,7.40
2023-05-04T22:39:21.520Z,7.30
2023-05-04T22:41:47.789Z,7.30
2023-05-04T22:44:14.047Z,7.20
2023-05-04T22:46:40.319Z,7.20
2023-05-04T22:49:07.166Z,7.10
2023-05-04T22:51:33.462Z,7.10
2023-05-04T22:53:59.665Z,7.10
2023-05-04T22:56:26.202Z,7.00
2023-05-04T22:58:52.345Z,6.90
2023-05-04T23:01:18.528Z,6.80
2023-05-04T23:03:44.951Z,6.80
2023-05-04T23:06:11.410Z,6.80
2023-05-04T23:08:38.187Z,6.70
2023-05-04T23:11:04.494Z,6.60
2023-05-04T23:13:30.633Z,6.60
2023-05-04T23:15:57.026Z,6.60
2023-05-04T23:18:23.277Z,6.50
2023-05-04T23:20:49.447Z,6.40
2023-05-04T23:23:15.894Z,6.50
2023-05-04T23:25:42.521Z,6.40
2023-05-04T23:28:08.806Z,6.40
2023-05-04T23:30:35.171Z,6.20
2023-05-04T23:33:01.509Z,8.80
2023-05-04T23:35:27.679Z,6.10
2023-05-04T23:37:53.950Z,6.10
2023-05-04T23:40:20.273Z,6.10
2023-05-04T23:42:49.989Z,6.10
2023-05-04T23:45:16.343Z,6.10
2023-05-04T23:47:42.598Z,6.00
2023-05-04T23:50:10.246Z,5.80
2023-05-04T23:52:36.634Z,5.90
2023-05-04T23:55:03.624Z,5.80
2023-05-04T23:57:29.842Z,5.70
2023-05-04T23:59:56.538Z,5.70
